Attica, Indiana
Current Conditions -  °F | °C
As of 12:54 AM on Friday 31 Oct 2014 (Local Time) from KLAF Reporting Station
Broken Clouds Broken Clouds  
Wind Chill: 44°   Ceiling: 9000
Heat Index: 44°   Visibility: 10mi
Dew Point: 39°   Wind: 3mph
Humidity: 82%   Direction: 260°W
Pressure: 30.05"   Gusts: NA
Location:  40.29°N, 87.25°W
Report Text: KLAF 310454Z AUTO 26003KT 10SM BKN090 07/04 A3005 RMK AO2 SLP176 T00670039 401111011 TSNO
Loading
Personal Weather Stations






























Interactive Weather Map New forecast layout! Learn more

10-Day Weather Forecast

Advertisements
Track Severe Weather on mobile